This is the latest recevied weather packets stored in our database for station/object WB0VGI-1. If no packets are shown the sender has not sent any weather packets the latest 10 day(s).
| Time | Temp. | Humidity | Pressure | Rain* | Wind** | Luminosity | Snow |
|---|---|---|---|---|---|---|---|
| 1777882025 | 14.44° C | 44% | 999.5 hPa | 0 mm | - | - | - |
| 1777880825 | 14.44° C | 45% | 1000.1 hPa | 0 mm | - | - | - |
| 1777879625 | 14.44° C | 45% | 1000.7 hPa | 0 mm | - | - | - |
| 1777878425 | 14.44° C | 45% | 1001.1 hPa | 0 mm | - | - | - |
| 1777877225 | 14.44° C | 44% | 1001.3 hPa | 0 mm | - | - | - |
| 1777876025 | 14.44° C | 45% | 1001.7 hPa | 0 mm | - | - | - |
| 1777874825 | 14.44° C | 46% | 1002.2 hPa | 0 mm | - | - | - |
| 1777873625 | 13.89° C | 47% | 1002.6 hPa | 0 mm | - | - | - |
| 1777872425 | 13.89° C | 47% | 1003 hPa | 0 mm | - | - | - |
| 1777871225 | 13.89° C | 46% | 1003.3 hPa | 0 mm | - | - | - |
| 1777870025 | 13.89° C | 46% | 1003.8 hPa | 0 mm | - | - | - |
| 1777868825 | 13.89° C | 45% | 1004.4 hPa | 0 mm | - | - | - |
| 1777867625 | 14.44° C | 43% | 1004.7 hPa | 0 mm | - | - | - |
| 1777866425 | 14.44° C | 42% | 1005.2 hPa | 0 mm | - | - | - |
| 1777865226 | 14.44° C | 40% | 1005.6 hPa | 0 mm | - | - | - |
| 1777864026 | 15° C | 39% | 1006.1 hPa | 0 mm | - | - | - |
| 1777862826 | 15.56° C | 37% | 1006.2 hPa | 0 mm | - | - | - |
| 1777861626 | 16.11° C | 37% | 1006.2 hPa | 0 mm | - | - | - |
| 1777860426 | 16.67° C | 36% | 1006.3 hPa | 0 mm | - | - | - |
| 1777859226 | 17.22° C | 35% | 1006.3 hPa | 0 mm | - | - | - |
| 1777858026 | 18.33° C | 34% | 1006.2 hPa | 0 mm | - | - | - |
| 1777856826 | 19.44° C | 33% | 1005.9 hPa | 0 mm | - | - | - |
| 1777855626 | 19.44° C | 31% | 1006.1 hPa | 0 mm | - | - | - |
| 1777854426 | 21.11° C | 29% | 1006.1 hPa | 0 mm | - | - | - |
| 1777853226 | 21.11° C | 29% | 1006.2 hPa | 0 mm | - | - | - |
* Rain latest hour (hover to see other rain measurements)
** Current wind speed in m/s (hover to see current wind gust speed)